ELLXEBCI

Guest
Details From ELLX - Luxembourg
To EBCI - Brussels South - Charleroi
Flight Number -
Tags generated
Created
Modified
Stats Distance 85 nm / 157 km
Max Altitude 5,300 ft / 1,615 m
Waypoints 3
Social Downloads 0
Likes 0
Share VATSIM

Download

Looking for another format? Having issues loading an existing format? Contact us
Advertisement - Login to hide

Notes

Basic altitude profile: - Ascent Rate: 2500ft/min - Ascent Speed: 250kts - Cruise Altitude: 35000ft - Cruise Speed: 420kts - Descent Rate: 1500ft/min - Descent Speed: 250kts

Route

ELLX IDOSA EBCI

ID Type Via Altitude Latitude Longitude Leg Dist Tot Dist Heading (true) Name
O ELLX APT - 0 ft / 0 m 49.62660˚ 6.21151˚ - 0 nm - Luxembourg
IDOSA FIX - 5,300 ft / 1,615 m 49.74165˚ 5.86978˚ 14 nm 14 nm 298° / 297° -
O EBCI APT - 0 ft / 0 m 50.45995˚ 4.45312˚ 69 nm 84 nm 309° / 308° Brussels South - Charleroi

Altitude Profile

Advertisement - Login to hide

ELLX

Details ICAO ELLX (LUX)
Name Luxembourg
Region Luxembourg
Timezone Europe/Luxembourg (UTC+2.0)
Stats Elevation 1,158 ft / 353 m (AMSL)
Location 49.626599° 6.211506°
Runways 1
Magnetic Variation 1.747° E

METAR

ELLX 221150Z 24008KT 200V290 9999 FEW040TCU 23/13 Q1013 NOSIG

Decode

TAF

TAF ELLX 221100Z 2212/2318 01005KT 9999 SCT040 TEMPO 2212/2223 VRB03KT 3000 TSRAGR SHRA BKN040CB TEMPO 2223/2304 SCT040TCU PROB40 TEMPO 2310/2318 SCT040TCU PROB30 2312/2315 TSRAGR SHRA SCT030CB

Decode

Departure Runways

ID Width Length Bearing (true) Bearing (mag) Surface Threshold Offset Overrun Length
06 197 ft / 60 m 13,135 ft / 4,004 m 60.14° 58.39° Asphalt 0 ft / 0 m 0 ft / 0 m
24 197 ft / 60 m 13,135 ft / 4,004 m 240.18° 238.43° Asphalt 0 ft / 0 m 180 ft / 55 m

EBCI

Details ICAO EBCI (CRL)
Name Brussels South - Charleroi
Region Belgium
Timezone Europe/Brussels (UTC+2.0)
Stats Elevation 614 ft / 187 m (AMSL)
Location 50.459947° 4.453125°
Runways 1
Magnetic Variation 1.193° E

METAR

EBCI 221150Z 24007KT 9999 FEW020 21/13 Q1013 TEMPO 20015G25KT 3000 SHRA SCT020TCU

Decode

TAF

TAF EBCI 221100Z 2212/2318 33005KT 8000 FEW045TCU PROB40 TEMPO 2212/2222 VRB18G30KT 2000 SHRA TSRAGR PROB30 TEMPO 2301/2305 2500 BR MIFG PROB40 TEMPO 2307/2315 VRB15G25KT 4000 SHRA

Decode

Destination Runways

ID Width Length Bearing (true) Bearing (mag) Surface Threshold Offset Overrun Length
07 148 ft / 45 m 8,374 ft / 2,552 m 65.53° 64.34° Asphalt 1,476 ft / 450 m 0 ft / 0 m
25 148 ft / 45 m 8,374 ft / 2,552 m 245.55° 244.36° Asphalt 0 ft / 0 m 0 ft / 0 m

Approach Navaids

Runway Type Ident Frequency Range Bearing (true) Bearing (mag) Slope Elevation
25 Localiser IGC 110.90 MHz 18 nm / 33 km 245.54° 244.35° - 614 ft / 187 m (AMSL)
25 Glidescope IGC 110.90 MHz 10 nm / 19 km 245.54° 244.35° 3.00° 614 ft / 187 m (AMSL)

Popular Alternatives